Time;durP1;ratioP1;P1;durP2;ratioP2;P2;SDS_P1;SDS_P2;PMS_P1;PMS_P2;Temp;Humidity;BMP_temperature;BMP_pressure;BME280_temperature;BME280_humidity;BME280_pressure;Samples;Min_cycle;Max_cycle;Signal;HPM_P1;HPM_P2
2023/09/04 00:02:30;;;;;;;5.25;4.72;;;;;;;17.17;93.75;102784.22;6181245;28;20233;-67
2023/09/04 00:05:51;;;;;;;6.38;4.15;;;;;;;17.16;93.54;102791.53;6180361;28;20233;-66
2023/09/04 00:09:15;;;;;;;5.43;4.07;;;;;;;17.00;94.46;102793.84;6190248;28;20225;-67
2023/09/04 00:12:36;;;;;;;5.03;4.57;;;;;;;16.91;94.54;102791.91;6189324;28;20254;-67
2023/09/04 00:15:57;;;;;;;5.15;4.65;;;;;;;16.88;95.30;102797.59;6190633;28;20233;-67
2023/09/04 00:19:18;;;;;;;4.47;4.07;;;;;;;16.81;96.19;102790.97;6184446;28;20225;-66
2023/09/04 00:22:38;;;;;;;5.50;4.88;;;;;;;16.88;96.08;102794.00;6188652;28;20233;-67
2023/09/04 00:26:01;;;;;;;4.25;3.42;;;;;;;16.73;96.25;102790.72;6193276;28;20619;-66
2023/09/04 00:29:22;;;;;;;4.93;4.30;;;;;;;16.82;96.70;102789.09;6193179;28;20618;-66
2023/09/04 00:32:44;;;;;;;3.95;3.60;;;;;;;16.92;96.74;102796.34;6202214;28;20233;-66
2023/09/04 00:36:05;;;;;;;4.15;3.40;;;;;;;16.91;96.32;102799.22;6190105;28;20244;-66
2023/09/04 00:39:26;;;;;;;4.22;3.60;;;;;;;16.83;96.41;102805.31;6193146;28;20694;-67
2023/09/04 00:42:49;;;;;;;4.93;4.23;;;;;;;16.71;96.57;102803.59;6190839;28;20320;-66
2023/09/04 00:46:10;;;;;;;5.82;4.28;;;;;;;16.73;96.98;102801.63;6175797;28;20237;-67
2023/09/04 00:49:31;;;;;;;4.45;4.05;;;;;;;16.72;96.75;102795.34;6165460;28;20572;-67
2023/09/04 00:52:57;;;;;;;4.93;3.95;;;;;;;16.67;96.59;102793.97;6195995;28;20851;-66
2023/09/04 00:56:18;;;;;;;5.00;4.10;;;;;;;16.64;96.81;102796.97;6189870;28;20603;-66
2023/09/04 00:59:40;;;;;;;6.30;4.03;;;;;;;16.63;96.97;102798.81;6192303;28;20236;-66
2023/09/04 01:03:02;;;;;;;5.85;3.92;;;;;;;16.58;96.59;102798.31;6191221;28;20241;-66
2023/09/04 01:06:23;;;;;;;4.43;3.65;;;;;;;16.65;96.61;102802.28;6192222;28;20237;-66
2023/09/04 01:09:46;;;;;;;3.95;3.42;;;;;;;16.55;96.81;102803.16;6194332;28;20583;-66
2023/09/04 01:13:13;;;;;;;5.00;4.50;;;;;;;16.49;96.77;102795.47;6187572;28;20317;-66
2023/09/04 01:16:35;;;;;;;5.10;4.03;;;;;;;16.56;96.67;102797.59;6172405;28;20793;-68
2023/09/04 01:19:57;;;;;;;3.43;3.13;;;;;;;16.52;97.11;102803.44;6191290;28;20229;-67
2023/09/04 01:23:19;;;;;;;5.28;3.90;;;;;;;16.50;96.74;102800.81;6182865;28;20589;-66
2023/09/04 01:26:46;;;;;;;4.77;4.27;;;;;;;16.49;96.71;102803.66;6189862;28;20637;-67
2023/09/04 01:30:13;;;;;;;5.97;5.07;;;;;;;16.40;97.03;102802.53;6182446;28;20335;-65
2023/09/04 01:33:46;;;;;;;5.47;3.88;;;;;;;16.30;97.33;102812.47;6187301;28;21531;-66
2023/09/04 01:37:08;;;;;;;5.97;3.63;;;;;;;16.14;98.67;102805.69;6191157;28;20240;-66
2023/09/04 01:40:31;;;;;;;5.83;4.40;;;;;;;15.99;99.32;102815.97;6194386;28;20360;-67
2023/09/04 01:43:53;;;;;;;5.03;3.80;;;;;;;15.81;100.00;102798.41;6184470;28;20229;-67
2023/09/04 01:47:14;;;;;;;3.57;3.27;;;;;;;15.97;100.00;102807.94;6189645;28;20233;-67
2023/09/04 01:50:36;;;;;;;5.83;4.17;;;;;;;15.98;100.00;102803.31;6180998;28;20232;-67
2023/09/04 01:53:56;;;;;;;5.67;4.03;;;;;;;15.86;100.00;102810.63;6176484;28;20320;-67
2023/09/04 01:57:18;;;;;;;3.73;3.43;;;;;;;15.87;100.00;102804.19;6180486;28;20226;-67
2023/09/04 02:00:39;;;;;;;4.93;3.90;;;;;;;15.97;100.00;102802.50;6176266;28;20233;-66
2023/09/04 02:04:00;;;;;;;5.07;4.27;;;;;;;16.01;100.00;102797.66;6170656;28;20623;-66
2023/09/04 02:07:21;;;;;;;5.43;4.40;;;;;;;16.06;100.00;102795.44;6184628;28;20529;-67
2023/09/04 02:10:41;;;;;;;4.00;3.70;;;;;;;16.04;100.00;102786.53;6184006;28;20245;-66
2023/09/04 02:14:04;;;;;;;4.90;4.10;;;;;;;15.78;100.00;102787.75;6153482;28;20285;-67
2023/09/04 02:17:25;;;;;;;5.27;4.77;;;;;;;15.75;100.00;102791.56;6186114;28;20241;-68
2023/09/04 02:20:46;;;;;;;3.90;3.60;;;;;;;15.82;100.00;102787.38;6185013;28;20229;-66
2023/09/04 02:24:08;;;;;;;4.90;3.83;;;;;;;15.99;100.00;102786.91;6193907;28;20233;-67
2023/09/04 02:27:28;;;;;;;5.47;4.97;;;;;;;16.08;100.00;102788.00;6191891;28;21453;-68
2023/09/04 02:30:52;;;;;;;4.33;3.70;;;;;;;15.97;100.00;102780.72;6183317;28;20237;-66
2023/09/04 02:34:15;;;;;;;3.53;3.23;;;;;;;15.99;100.00;102778.75;6187659;28;20232;-67
2023/09/04 02:37:36;;;;;;;6.97;4.20;;;;;;;16.02;99.84;102788.47;6189455;28;20678;-67
2023/09/04 02:40:57;;;;;;;4.23;3.30;;;;;;;15.96;99.96;102781.69;6182429;28;20619;-66
2023/09/04 02:44:18;;;;;;;4.63;3.47;;;;;;;15.92;99.75;102779.34;6181388;28;20242;-66
2023/09/04 02:47:40;;;;;;;4.22;3.90;;;;;;;15.88;99.42;102780.56;6187106;28;20241;-67
2023/09/04 02:51:01;;;;;;;5.40;4.07;;;;;;;15.86;99.52;102775.28;6185394;28;20496;-67
2023/09/04 02:54:22;;;;;;;5.85;3.85;;;;;;;15.81;99.08;102774.75;6188210;28;20229;-66
2023/09/04 02:57:43;;;;;;;4.45;4.05;;;;;;;15.84;99.37;102773.66;6187636;28;20324;-66
2023/09/04 03:01:04;;;;;;;6.07;4.50;;;;;;;15.73;99.48;102776.38;6189170;28;20279;-66
2023/09/04 03:04:27;;;;;;;5.10;3.27;;;;;;;15.78;99.39;102772.31;6188461;28;20260;-66
2023/09/04 03:07:48;;;;;;;7.10;3.67;;;;;;;15.68;99.04;102774.03;6185974;28;21154;-66
2023/09/04 03:11:10;;;;;;;4.87;3.50;;;;;;;15.70;99.10;102765.75;6191988;28;20780;-66
2023/09/04 03:14:31;;;;;;;4.75;3.50;;;;;;;15.69;99.59;102769.44;6173217;28;20266;-66
2023/09/04 03:17:52;;;;;;;6.10;3.90;;;;;;;15.65;99.52;102774.28;6208838;28;20651;-67
2023/09/04 03:21:14;;;;;;;4.25;3.30;;;;;;;15.59;99.19;102772.03;6169894;28;20790;-67
2023/09/04 03:24:36;;;;;;;14.17;12.57;;;;;;;15.65;99.26;102781.56;6197514;28;20225;-66
2023/09/04 03:27:58;;;;;;;6.53;5.75;;;;;;;15.63;99.60;102768.09;6194838;28;20503;-66
2023/09/04 03:31:20;;;;;;;6.43;5.82;;;;;;;15.68;99.10;102771.31;6152356;28;20262;-66
2023/09/04 03:34:42;;;;;;;5.47;5.00;;;;;;;15.61;99.15;102767.34;6187192;28;20238;-67
2023/09/04 03:38:04;;;;;;;6.05;5.43;;;;;;;15.53;99.10;102774.38;6182688;28;20237;-67
2023/09/04 03:41:26;;;;;;;6.17;5.20;;;;;;;15.51;99.08;102762.75;6183136;28;20261;-67
2023/09/04 03:44:49;;;;;;;4.83;4.37;;;;;;;15.34;99.19;102768.63;6200059;28;20302;-68
2023/09/04 03:48:10;;;;;;;5.00;4.60;;;;;;;15.47;99.32;102769.44;6177573;28;20241;-67
2023/09/04 03:51:32;;;;;;;5.63;3.83;;;;;;;15.43;99.13;102774.25;6151008;28;20245;-68
2023/09/04 03:54:54;;;;;;;3.77;3.47;;;;;;;15.42;99.28;102779.75;6182234;28;20233;-67
2023/09/04 03:58:15;;;;;;;4.03;3.57;;;;;;;15.50;99.07;102780.06;6184574;28;20559;-67
2023/09/04 04:01:35;;;;;;;15.43;13.90;;;;;;;15.41;99.26;102781.63;6175246;28;20233;-67
2023/09/04 04:04:56;;;;;;;15.50;6.17;;;;;;;15.42;98.98;102777.91;6196269;28;20376;-67
2023/09/04 04:08:17;;;;;;;17.93;16.07;;;;;;;15.39;99.16;102783.59;6193496;28;20654;-67
2023/09/04 04:11:40;;;;;;;10.90;9.03;;;;;;;15.44;99.19;102775.97;6189341;28;20228;-65
2023/09/04 04:15:04;;;;;;;8.17;6.17;;;;;;;15.37;99.28;102782.00;6187038;28;20233;-66
2023/09/04 04:18:26;;;;;;;7.23;5.93;;;;;;;15.44;98.81;102786.84;6198979;28;20969;-67
2023/09/04 04:21:47;;;;;;;6.67;6.07;;;;;;;15.35;99.22;102783.97;6188737;28;20233;-67
2023/09/04 04:25:09;;;;;;;9.50;4.47;;;;;;;15.27;98.96;102784.53;6193577;28;20562;-68
2023/09/04 04:28:31;;;;;;;8.60;7.00;;;;;;;15.32;98.89;102784.19;6193057;28;20234;-66
2023/09/04 04:31:53;;;;;;;14.20;9.50;;;;;;;15.23;98.90;102783.94;6188657;28;20596;-66
2023/09/04 04:35:14;;;;;;;5.70;5.20;;;;;;;15.23;99.40;102788.50;6189136;28;20658;-66
2023/09/04 04:38:35;;;;;;;7.43;5.40;;;;;;;15.29;99.01;102789.88;6193055;28;20259;-66
2023/09/04 04:41:59;;;;;;;12.13;10.60;;;;;;;15.37;99.48;102791.03;6195795;28;20626;-66
2023/09/04 04:45:22;;;;;;;9.87;8.93;;;;;;;15.37;99.53;102793.75;6201145;28;21047;-66
2023/09/04 04:48:44;;;;;;;9.00;7.57;;;;;;;15.49;98.79;102794.66;6192006;28;20229;-66
2023/09/04 04:52:05;;;;;;;6.60;5.87;;;;;;;15.32;98.74;102793.22;6192414;28;20305;-66
2023/09/04 04:55:26;;;;;;;4.37;3.93;;;;;;;15.03;98.94;102800.91;6192283;28;20757;-67
2023/09/04 04:58:47;;;;;;;4.10;3.63;;;;;;;14.86;100.00;102805.88;6188713;28;20237;-66
2023/09/04 05:02:09;;;;;;;13.47;5.50;;;;;;;15.14;100.00;102802.81;6189206;28;20324;-67
2023/09/04 05:05:30;;;;;;;5.17;4.67;;;;;;;15.25;100.00;102810.13;6189991;28;20324;-67
2023/09/04 05:08:52;;;;;;;9.10;5.57;;;;;;;15.31;99.75;102806.94;6196646;28;20257;-66
2023/09/04 05:12:13;;;;;;;10.47;9.30;;;;;;;15.40;99.66;102803.47;6199204;28;20233;-68
2023/09/04 05:15:34;;;;;;;17.77;8.37;;;;;;;15.58;99.36;102807.53;6187695;28;20233;-66
2023/09/04 05:18:57;;;;;;;11.33;8.93;;;;;;;15.55;98.52;102802.31;6192379;28;20241;-67
2023/09/04 05:22:18;;;;;;;5.90;5.40;;;;;;;15.57;98.62;102800.34;6202023;28;20324;-65
2023/09/04 05:25:48;;;;;;;6.73;5.23;;;;;;;15.63;98.51;102808.00;6178890;28;20233;-66
2023/09/04 05:29:09;;;;;;;5.00;4.37;;;;;;;15.67;97.86;102806.78;6176748;28;20237;-66
2023/09/04 05:32:29;;;;;;;5.33;4.83;;;;;;;15.67;98.38;102801.34;6187970;28;20338;-66
2023/09/04 05:35:56;;;;;;;6.63;5.93;;;;;;;15.78;97.64;102815.81;6169015;28;20233;-66
2023/09/04 05:39:17;;;;;;;7.50;4.73;;;;;;;15.97;97.38;102809.78;6182278;28;20237;-67
2023/09/04 05:42:37;;;;;;;6.53;5.07;;;;;;;16.02;97.55;102816.56;6193910;28;20530;-67
2023/09/04 05:45:58;;;;;;;6.03;5.07;;;;;;;16.12;97.38;102819.41;6188538;28;20229;-67
2023/09/04 05:49:19;;;;;;;6.17;4.50;;;;;;;16.07;97.05;102828.94;6190067;28;20262;-66
2023/09/04 05:52:41;;;;;;;4.63;4.07;;;;;;;15.98;97.33;102825.97;6190868;28;20240;-66
2023/09/04 05:56:04;;;;;;;6.73;4.63;;;;;;;16.14;97.10;102841.06;6198240;28;20229;-66
2023/09/04 05:59:26;;;;;;;6.10;5.00;;;;;;;16.08;97.35;102841.56;6201257;28;20623;-68
2023/09/04 06:02:46;;;;;;;6.67;5.37;;;;;;;16.28;97.58;102833.50;6203492;28;20686;-67
2023/09/04 06:06:08;;;;;;;13.33;5.50;;;;;;;16.47;97.00;102841.03;6205821;28;20261;-67
2023/09/04 06:09:30;;;;;;;10.30;4.37;;;;;;;16.59;96.54;102851.81;6200678;28;20241;-67
2023/09/04 06:12:52;;;;;;;6.43;4.70;;;;;;;16.73;96.27;102839.75;6198675;28;20481;-67
2023/09/04 06:16:14;;;;;;;6.03;5.43;;;;;;;16.76;95.96;102842.25;6201089;28;20229;-66
2023/09/04 06:19:34;;;;;;;5.57;4.53;;;;;;;16.88;95.86;102833.03;6199217;28;20560;-65
2023/09/04 06:22:55;;;;;;;8.47;6.70;;;;;;;17.00;95.46;102840.16;6188176;28;20336;-66
2023/09/04 06:26:17;;;;;;;6.80;5.87;;;;;;;17.08;95.20;102842.25;6197202;28;20307;-66
2023/09/04 06:29:38;;;;;;;6.63;5.57;;;;;;;17.11;95.02;102837.41;6194126;28;20233;-67
2023/09/04 06:32:59;;;;;;;6.87;6.17;;;;;;;17.12;95.46;102833.69;6193529;28;20233;-67
2023/09/04 06:36:20;;;;;;;10.20;7.47;;;;;;;17.21;95.59;102838.34;6172419;28;20254;-67
2023/09/04 06:39:41;;;;;;;9.00;7.95;;;;;;;17.41;95.08;102847.53;6170506;28;20265;-65
2023/09/04 06:43:03;;;;;;;8.18;7.22;;;;;;;17.55;94.63;102845.38;6195451;28;22300;-66
2023/09/04 06:46:24;;;;;;;6.55;5.95;;;;;;;17.56;94.48;102844.38;6199615;28;20242;-66
2023/09/04 06:49:45;;;;;;;13.48;7.45;;;;;;;17.71;94.23;102850.34;6194921;28;21033;-66
2023/09/04 06:53:06;;;;;;;13.18;10.90;;;;;;;18.00;93.44;102847.81;6198209;28;20234;-67
2023/09/04 06:56:27;;;;;;;10.82;8.52;;;;;;;18.23;93.01;102846.63;6201735;28;20233;-67
2023/09/04 06:59:49;;;;;;;9.10;7.10;;;;;;;18.37;91.84;102848.97;6203443;28;20645;-68
2023/09/04 07:03:10;;;;;;;7.95;6.78;;;;;;;18.48;91.05;102845.31;6182031;28;20233;-66
2023/09/04 07:06:31;;;;;;;8.55;6.57;;;;;;;18.52;90.81;102850.34;6204875;28;20247;-65
2023/09/04 07:09:52;;;;;;;10.18;7.88;;;;;;;18.62;90.50;102844.91;6197718;28;20606;-67
2023/09/04 07:13:13;;;;;;;11.27;6.95;;;;;;;18.46;90.64;102852.78;6199274;28;20233;-65
2023/09/04 07:16:37;;;;;;;10.07;7.18;;;;;;;18.75;89.75;102848.25;6188994;28;20237;-66
2023/09/04 07:19:58;;;;;;;9.52;5.95;;;;;;;18.63;89.96;102850.22;6199266;28;20334;-66
2023/09/04 07:23:19;;;;;;;8.10;6.35;;;;;;;18.98;89.35;102844.25;6199538;28;20597;-66
2023/09/04 07:26:40;;;;;;;9.82;6.88;;;;;;;18.78;89.39;102853.41;6199744;28;20229;-66
2023/09/04 07:30:01;;;;;;;9.40;6.90;;;;;;;18.79;89.36;102850.56;6197512;28;20230;-67
2023/09/04 07:33:23;;;;;;;9.07;6.63;;;;;;;18.99;89.04;102851.44;6200081;28;20233;-68
2023/09/04 07:36:44;;;;;;;9.25;7.63;;;;;;;19.32;87.88;102852.88;6194724;28;20340;-67
2023/09/04 07:40:05;;;;;;;8.30;5.45;;;;;;;19.54;87.00;102852.63;6194456;28;20614;-67
2023/09/04 07:43:26;;;;;;;7.47;5.50;;;;;;;19.71;86.34;102849.13;6190573;28;20229;-67
2023/09/04 07:46:47;;;;;;;8.50;6.93;;;;;;;19.79;84.83;102855.59;6191004;28;20363;-68
2023/09/04 07:50:11;;;;;;;7.47;6.70;;;;;;;19.67;84.17;102853.19;6175091;28;20328;-68
2023/09/04 07:53:32;;;;;;;6.75;6.15;;;;;;;19.54;84.30;102858.09;6186622;28;20237;-66
2023/09/04 07:56:52;;;;;;;10.10;6.63;;;;;;;19.53;83.41;102859.94;6190057;28;20238;-66
2023/09/04 08:00:21;;;;;;;6.22;5.63;;;;;;;19.66;83.13;102852.31;6189966;28;20548;-67
2023/09/04 08:03:43;;;;;;;8.32;6.15;;;;;;;19.99;82.47;102848.19;6177832;28;20260;-67
2023/09/04 08:07:06;;;;;;;6.50;5.20;;;;;;;20.13;80.80;102852.31;6169397;28;20225;-66
2023/09/04 08:10:26;;;;;;;5.88;5.00;;;;;;;20.17;80.32;102849.09;6187696;28;20256;-67
2023/09/04 08:13:47;;;;;;;6.53;4.75;;;;;;;20.47;79.31;102842.53;6176926;28;20339;-66
2023/09/04 08:17:08;;;;;;;7.90;4.43;;;;;;;20.63;78.58;102840.00;6172091;28;20259;-66
2023/09/04 08:20:29;;;;;;;5.82;4.30;;;;;;;20.96;77.78;102847.56;6181583;28;20319;-67
2023/09/04 08:23:51;;;;;;;6.78;4.40;;;;;;;20.88;76.83;102846.59;6181974;28;20256;-65
2023/09/04 08:27:12;;;;;;;4.53;3.55;;;;;;;20.77;75.49;102850.44;6180876;28;20614;-65
2023/09/04 08:30:34;;;;;;;9.52;3.67;;;;;;;21.04;75.18;102844.06;6191308;28;20234;-68
2023/09/04 08:33:54;;;;;;;4.47;3.75;;;;;;;20.77;74.66;102849.56;6192385;28;20723;-66
2023/09/04 08:37:15;;;;;;;5.35;3.97;;;;;;;20.83;75.53;102843.47;6190973;28;20323;-66
2023/09/04 08:40:41;;;;;;;7.53;4.93;;;;;;;21.20;74.48;102845.06;6197382;28;21125;-66
2023/09/04 08:44:04;;;;;;;4.35;3.13;;;;;;;20.68;73.70;102838.50;6184786;28;20230;-66
2023/09/04 08:47:25;;;;;;;4.93;2.40;;;;;;;21.04;73.15;102849.53;6199165;28;20306;-67
2023/09/04 08:50:49;;;;;;;12.45;3.63;;;;;;;20.65;72.30;102852.50;6201818;28;21072;-66
2023/09/04 08:54:11;;;;;;;4.05;2.78;;;;;;;20.53;71.62;102855.59;6182480;28;20238;-67
2023/09/04 08:57:33;;;;;;;3.60;2.30;;;;;;;20.70;69.42;102839.22;6201989;28;20511;-65
2023/09/04 09:00:54;;;;;;;4.95;2.10;;;;;;;20.91;69.65;102835.31;6200295;28;20513;-67
2023/09/04 09:04:16;;;;;;;4.40;2.75;;;;;;;21.16;69.56;102842.81;6203294;28;20241;-66
2023/09/04 09:07:39;;;;;;;2.25;1.92;;;;;;;21.35;67.89;102839.88;6201590;28;20233;-66
2023/09/04 09:11:03;;;;;;;2.70;1.83;;;;;;;21.53;67.04;102843.47;6200723;28;20256;-66
2023/09/04 09:14:27;;;;;;;2.78;2.08;;;;;;;21.69;66.34;102837.25;6200700;28;20522;-67
2023/09/04 09:17:53;;;;;;;2.38;1.80;;;;;;;21.46;65.26;102850.63;6204534;28;20237;-67
2023/09/04 09:21:25;;;;;;;14.40;3.38;;;;;;;21.16;65.22;102849.16;6199566;28;20638;-66
2023/09/04 09:24:52;;;;;;;6.18;3.28;;;;;;;21.31;66.38;102855.81;6196763;28;20554;-66
2023/09/04 09:28:13;;;;;;;6.50;3.20;;;;;;;21.77;66.15;102842.78;6193765;28;20618;-66
2023/09/04 09:31:35;;;;;;;5.65;2.53;;;;;;;21.44;65.80;102838.94;6209145;28;20237;-65
2023/09/04 09:34:58;;;;;;;2.85;2.33;;;;;;;22.05;64.76;102830.66;6206964;28;20224;-66
2023/09/04 09:38:19;;;;;;;5.25;2.45;;;;;;;22.05;64.14;102831.50;6209132;28;20232;-66
2023/09/04 09:41:40;;;;;;;2.72;2.53;;;;;;;22.38;64.20;102827.03;6204873;28;20236;-67
2023/09/04 09:45:01;;;;;;;3.50;2.60;;;;;;;22.25;63.86;102835.75;6205307;28;20241;-66
2023/09/04 09:48:25;;;;;;;2.95;2.10;;;;;;;21.69;63.50;102835.38;6204097;28;20677;-67
2023/09/04 09:51:51;;;;;;;5.90;2.10;;;;;;;21.74;64.21;102824.75;6203133;28;20754;-66
2023/09/04 09:55:24;;;;;;;3.15;2.38;;;;;;;22.15;62.50;102829.47;6203775;28;20244;-66
2023/09/04 09:58:47;;;;;;;3.95;2.55;;;;;;;22.46;62.29;102821.56;6195295;28;20630;-67
2023/09/04 10:02:08;;;;;;;1.90;1.75;;;;;;;22.69;62.51;102817.22;6203240;28;20233;-67
2023/09/04 10:05:32;;;;;;;2.95;2.30;;;;;;;23.01;60.92;102811.75;6200170;28;21466;-67
2023/09/04 10:08:53;;;;;;;1.58;1.48;;;;;;;22.15;59.70;102807.50;6195184;28;20241;-66
2023/09/04 10:12:21;;;;;;;1.70;1.23;;;;;;;22.78;58.24;102796.94;6194631;28;20237;-68
2023/09/04 10:15:44;;;;;;;3.67;2.53;;;;;;;22.55;57.67;102804.06;6189120;28;20606;-67
2023/09/04 10:19:07;;;;;;;3.15;2.25;;;;;;;22.29;59.06;102797.78;6202160;28;20260;-66
2023/09/04 10:22:35;;;;;;;3.53;1.63;;;;;;;22.92;58.37;102793.53;6206091;28;20233;-67
2023/09/04 10:26:06;;;;;;;2.60;1.45;;;;;;;22.99;57.94;102785.44;6194713;28;20232;-67
2023/09/04 10:29:32;;;;;;;1.38;1.15;;;;;;;23.98;57.07;102789.66;6196352;28;21056;-67
2023/09/04 10:32:55;;;;;;;1.67;1.27;;;;;;;23.88;56.10;102788.16;6189227;28;20517;-67
2023/09/04 10:36:17;;;;;;;4.30;1.52;;;;;;;24.72;54.76;102782.78;6192772;28;20777;-67
2023/09/04 10:39:40;;;;;;;2.30;1.40;;;;;;;24.30;54.73;102783.19;6181240;28;20241;-67
2023/09/04 10:43:03;;;;;;;3.00;1.88;;;;;;;24.64;55.74;102783.69;6198372;28;20245;-68
2023/09/04 10:46:24;;;;;;;1.63;1.52;;;;;;;24.92;53.65;102782.16;6169865;28;20361;-67
2023/09/04 10:49:46;;;;;;;4.32;2.47;;;;;;;25.77;52.89;102771.72;6178217;28;20237;-67
2023/09/04 10:53:09;;;;;;;1.98;1.77;;;;;;;24.94;53.82;102776.44;6176796;28;20219;-68
2023/09/04 10:56:53;;;;;;;1.75;1.50;;;;;;;24.65;53.41;102766.09;6198635;28;20234;-66
2023/09/04 11:00:27;;;;;;;3.47;1.83;;;;;;;24.86;54.08;102763.59;6148239;28;20241;-67
2023/09/04 11:03:49;;;;;;;2.50;1.70;;;;;;;25.41;53.26;102756.91;6174924;28;20266;-69
2023/09/04 11:07:28;;;;;;;2.03;1.52;;;;;;;25.75;52.10;102758.09;6188010;28;20229;-67
2023/09/04 11:11:01;;;;;;;2.33;1.63;;;;;;;26.61;51.78;102761.00;6179551;28;20241;-67
2023/09/04 11:14:33;;;;;;;1.70;1.45;;;;;;;26.10;50.75;102764.78;6160687;28;20242;-66
2023/09/04 11:17:54;;;;;;;2.70;1.00;;;;;;;26.37;50.10;102761.31;6193264;28;20237;-67
2023/09/04 11:21:16;;;;;;;2.17;1.60;;;;;;;28.97;45.07;102752.41;6176597;28;20233;-68
2023/09/04 11:24:36;;;;;;;1.48;1.38;;;;;;;31.45;39.26;102763.78;6193785;28;20324;-68
2023/09/04 11:27:58;;;;;;;2.55;1.52;;;;;;;34.05;37.10;102754.69;6197571;28;20241;-67
2023/09/04 11:31:21;;;;;;;2.78;1.48;;;;;;;34.66;35.47;102754.03;6193066;28;21030;-69
2023/09/04 11:34:43;;;;;;;1.25;1.00;;;;;;;36.68;33.30;102755.25;6195072;28;20232;-69
2023/09/04 11:38:25;;;;;;;1.55;1.38;;;;;;;35.80;33.13;102750.69;6191315;28;20245;-69
2023/09/04 11:41:49;;;;;;;4.30;1.15;;;;;;;37.27;32.63;102745.75;6193917;28;20244;-68
2023/09/04 11:45:10;;;;;;;1.60;1.20;;;;;;;37.69;31.61;102745.78;6203251;28;20260;-70
2023/09/04 11:48:33;;;;;;;2.38;1.90;;;;;;;38.35;30.51;102732.91;6185263;28;20233;-70
2023/09/04 11:51:55;;;;;;;1.02;1.00;;;;;;;34.47;33.77;102738.47;6188633;28;20678;-68
2023/09/04 11:55:17;;;;;;;1.13;0.95;;;;;;;37.33;31.50;102724.97;6187836;28;20226;-69
2023/09/04 11:58:38;;;;;;;2.22;1.15;;;;;;;38.52;29.79;102718.59;6177242;28;20238;-66
2023/09/04 12:01:59;;;;;;;1.20;1.10;;;;;;;39.79;29.02;102724.00;6204990;28;22783;-67
2023/09/04 12:05:22;;;;;;;1.30;0.93;;;;;;;38.08;29.75;102733.06;6179676;28;20229;-67
2023/09/04 12:08:42;;;;;;;1.17;1.08;;;;;;;36.65;31.02;102714.47;6184337;28;20233;-67
2023/09/04 12:12:04;;;;;;;1.08;0.90;;;;;;;38.97;29.49;102727.16;6199561;28;20325;-67
2023/09/04 12:15:26;;;;;;;0.88;0.88;;;;;;;39.38;28.59;102717.56;6181488;28;20345;-67
2023/09/04 12:18:49;;;;;;;1.20;0.88;;;;;;;37.67;30.13;102716.19;6189213;28;20222;-68
2023/09/04 12:22:13;;;;;;;2.75;1.08;;;;;;;37.80;30.77;102710.13;6198032;28;20385;-67
2023/09/04 12:25:36;;;;;;;0.68;0.68;;;;;;;39.31;29.28;102704.84;6190331;28;20278;-66
2023/09/04 12:28:57;;;;;;;1.75;0.90;;;;;;;37.64;29.46;102709.13;6188440;28;20248;-67
2023/09/04 12:32:21;;;;;;;1.42;1.15;;;;;;;36.28;32.16;102709.81;6200231;28;20237;-67
2023/09/04 12:35:42;;;;;;;3.42;1.40;;;;;;;38.65;29.67;102707.63;6181087;28;20343;-68
2023/09/04 12:39:05;;;;;;;2.42;1.05;;;;;;;34.98;33.22;102707.56;6184761;28;20328;-67
2023/09/04 12:42:26;;;;;;;1.95;0.90;;;;;;;37.11;31.79;102703.66;6186054;28;20264;-69
2023/09/04 12:45:47;;;;;;;1.92;1.10;;;;;;;38.59;29.83;102691.81;6200702;28;20232;-68
2023/09/04 12:49:08;;;;;;;2.65;1.45;;;;;;;38.54;30.21;102688.13;6192181;28;22273;-65
2023/09/04 12:52:29;;;;;;;1.48;1.38;;;;;;;36.96;31.40;102673.44;6197314;28;20348;-67
2023/09/04 12:55:51;;;;;;;0.93;0.93;;;;;;;36.32;32.36;102671.63;6194891;28;20233;-67
2023/09/04 12:59:12;;;;;;;1.27;1.15;;;;;;;37.09;32.12;102675.81;6186877;28;20232;-67
2023/09/04 13:02:33;;;;;;;1.80;1.65;;;;;;;37.10;31.94;102663.41;6202155;28;20544;-68
2023/09/04 13:05:54;;;;;;;1.10;0.98;;;;;;;38.29;31.10;102661.59;6176575;28;21906;-67
2023/09/04 13:09:15;;;;;;;1.73;1.20;;;;;;;36.63;32.56;102652.00;6188535;28;20232;-68
2023/09/04 13:12:38;;;;;;;1.10;1.00;;;;;;;35.43;34.20;102644.84;6205627;28;20341;-67
2023/09/04 13:15:59;;;;;;;2.03;1.23;;;;;;;34.83;33.92;102651.16;6192516;28;20314;-67
2023/09/04 13:19:20;;;;;;;1.30;1.20;;;;;;;36.31;32.60;102639.00;6183403;28;20233;-67
2023/09/04 13:22:42;;;;;;;1.25;1.00;;;;;;;38.32;31.36;102634.81;6193082;28;20598;-67
2023/09/04 13:26:03;;;;;;;0.88;0.88;;;;;;;37.81;31.43;102630.09;6186701;28;20233;-66
2023/09/04 13:29:26;;;;;;;4.20;1.23;;;;;;;39.29;30.37;102625.22;6188861;28;20236;-66
2023/09/04 13:32:47;;;;;;;1.02;0.70;;;;;;;37.09;31.23;102615.88;6192798;28;20647;-67
2023/09/04 13:36:08;;;;;;;3.22;1.40;;;;;;;36.39;31.29;102613.22;6174417;28;20233;-66
2023/09/04 13:39:29;;;;;;;1.33;1.10;;;;;;;37.63;30.85;102609.72;6190365;28;20312;-66
2023/09/04 13:42:50;;;;;;;0.80;0.80;;;;;;;36.78;30.60;102607.16;6193676;28;20288;-67
2023/09/04 13:46:12;;;;;;;1.27;0.68;;;;;;;37.58;30.10;102598.44;6163835;28;20321;-67
2023/09/04 13:49:33;;;;;;;0.63;0.63;;;;;;;36.15;31.69;102581.81;6196173;28;20264;-66
2023/09/04 13:52:54;;;;;;;1.08;1.00;;;;;;;37.17;30.79;102578.75;6193927;28;20233;-66
2023/09/04 13:56:15;;;;;;;0.88;0.73;;;;;;;35.18;31.36;102589.22;6191618;28;20722;-67
2023/09/04 13:59:36;;;;;;;2.05;1.00;;;;;;;34.76;32.60;102582.34;6181171;28;20233;-66
2023/09/04 14:02:59;;;;;;;2.33;1.63;;;;;;;35.92;31.29;102574.47;6188004;28;20233;-66
2023/09/04 14:06:19;;;;;;;1.55;1.15;;;;;;;32.62;35.60;102582.78;6190155;28;20674;-66
2023/09/04 14:09:40;;;;;;;1.40;1.10;;;;;;;34.83;33.62;102569.88;6187260;28;20327;-65
2023/09/04 14:13:01;;;;;;;0.80;0.73;;;;;;;35.54;32.34;102568.97;6188750;28;20627;-66
2023/09/04 14:16:22;;;;;;;1.38;0.90;;;;;;;33.49;34.62;102564.16;6187338;28;20229;-67
2023/09/04 14:19:44;;;;;;;1.73;0.73;;;;;;;32.93;36.68;102553.63;6192643;28;20240;-67
2023/09/04 14:23:05;;;;;;;1.38;0.88;;;;;;;31.43;37.66;102557.63;6195076;28;20260;-67
2023/09/04 14:26:26;;;;;;;1.05;0.95;;;;;;;34.02;36.06;102558.31;6196025;28;20229;-66
2023/09/04 14:29:47;;;;;;;1.92;1.58;;;;;;;32.84;36.78;102569.06;6191227;28;20237;-65
2023/09/04 14:33:07;;;;;;;1.63;0.90;;;;;;;32.41;37.94;102554.53;6192271;28;20233;-66
2023/09/04 14:36:30;;;;;;;1.60;0.90;;;;;;;32.32;38.43;102551.22;6194553;28;20815;-66
2023/09/04 14:39:53;;;;;;;1.83;1.25;;;;;;;30.96;39.69;102549.97;6183935;28;20233;-66
2023/09/04 14:43:14;;;;;;;2.10;0.88;;;;;;;30.52;41.76;102536.25;6187418;28;20253;-66
2023/09/04 14:46:35;;;;;;;1.30;0.95;;;;;;;30.88;40.71;102539.13;6178473;28;20236;-66
2023/09/04 14:49:56;;;;;;;0.90;0.90;;;;;;;30.19;41.47;102542.03;6170694;28;20244;-66
2023/09/04 14:53:18;;;;;;;1.25;1.15;;;;;;;28.29;43.63;102536.13;6177023;28;20261;-65
2023/09/04 14:56:39;;;;;;;1.08;0.98;;;;;;;29.15;43.28;102533.13;6178996;28;20351;-65
2023/09/04 15:00:00;;;;;;;1.50;1.40;;;;;;;29.11;43.85;102531.81;6186891;28;20232;-66
2023/09/04 15:03:21;;;;;;;1.70;0.98;;;;;;;29.20;43.54;102522.22;6173495;28;20236;-67
2023/09/04 15:06:44;;;;;;;1.02;0.98;;;;;;;29.91;42.87;102517.41;6147239;28;20241;-65
2023/09/04 15:10:07;;;;;;;0.70;0.70;;;;;;;29.52;43.03;102513.97;6157911;28;20230;-66
2023/09/04 15:13:27;;;;;;;1.23;1.13;;;;;;;30.22;43.10;102507.34;6176644;28;20237;-66
2023/09/04 15:16:48;;;;;;;2.15;1.20;;;;;;;30.34;42.99;102508.34;6188710;28;20607;-66
2023/09/04 15:20:10;;;;;;;2.08;0.90;;;;;;;30.23;42.93;102503.50;6183099;28;20241;-66
2023/09/04 15:23:34;;;;;;;0.98;0.80;;;;;;;29.18;43.00;102506.84;6180473;28;20230;-66
2023/09/04 15:26:56;;;;;;;1.65;0.95;;;;;;;28.83;43.69;102499.84;6192956;28;20261;-66
2023/09/04 15:30:17;;;;;;;0.93;0.90;;;;;;;30.16;42.22;102497.97;6184036;28;20240;-65
2023/09/04 15:33:38;;;;;;;1.98;0.95;;;;;;;29.59;41.65;102501.72;6157851;28;20245;-66
2023/09/04 15:36:58;;;;;;;0.93;0.93;;;;;;;28.79;42.67;102496.63;6193724;28;20237;-66
2023/09/04 15:40:20;;;;;;;1.65;0.88;;;;;;;29.01;42.56;102497.25;6174158;28;20549;-66